Time;durP1;ratioP1;P1;durP2;ratioP2;P2;SDS_P1;SDS_P2;PMS_P1;PMS_P2;Temp;Humidity;BMP_temperature;BMP_pressure;BME280_temperature;BME280_humidity;BME280_pressure;Samples;Min_cycle;Max_cycle;Signal;HPM_P1;HPM_P2
2021/11/06 00:01:34;;;;;;;22.80;7.60;;;;;;;7.04;81.49;101230.06;112749;1200;24068;-59
2021/11/06 00:04:05;;;;;;;16.80;6.40;;;;;;;7.03;81.57;101230.83;112810;1199;24049;-61
2021/11/06 00:06:36;;;;;;;18.80;7.30;;;;;;;7.02;81.52;101234.33;112997;1192;25069;-60
2021/11/06 00:09:08;;;;;;;18.30;6.60;;;;;;;7.02;81.54;101231.80;112827;1200;24071;-61
2021/11/06 00:11:39;;;;;;;22.50;7.10;;;;;;;7.02;81.58;101234.64;112831;1200;22439;-59
2021/11/06 00:14:10;;;;;;;19.50;7.50;;;;;;;7.03;81.59;101231.05;112749;1200;22762;-60
2021/11/06 00:16:41;;;;;;;19.70;6.40;;;;;;;7.02;81.61;101233.68;112781;1199;23811;-59
2021/11/06 00:19:11;;;;;;;19.70;7.10;;;;;;;7.02;81.53;101236.79;112852;1193;22632;-59
2021/11/06 00:21:42;;;;;;;18.00;6.20;;;;;;;7.01;81.57;101237.92;112746;1192;22445;-61
2021/11/06 00:24:13;;;;;;;16.80;7.00;;;;;;;7.02;81.46;101237.34;112794;1200;24992;-61
2021/11/06 00:26:49;;;;;;;26.00;8.80;;;;;;;7.02;81.49;101236.79;113239;1199;25082;-60
2021/11/06 00:29:20;;;;;;;22.20;8.20;;;;;;;7.01;81.48;101237.36;112952;1193;22440;-60
2021/11/06 00:31:51;;;;;;;20.80;7.50;;;;;;;7.00;81.53;101235.48;112818;1200;24067;-60
2021/11/06 00:34:22;;;;;;;19.10;7.00;;;;;;;7.00;81.48;101235.82;112812;1199;22445;-61
2021/11/06 00:36:53;;;;;;;23.30;8.10;;;;;;;6.99;81.45;101233.45;112668;1192;24050;-60
2021/11/06 00:39:24;;;;;;;18.10;6.90;;;;;;;6.98;81.49;101233.54;112937;1192;22430;-60
2021/11/06 00:41:55;;;;;;;20.90;6.60;;;;;;;6.98;81.36;101234.41;112840;1200;25426;-60
2021/11/06 00:44:26;;;;;;;18.10;6.20;;;;;;;6.97;81.40;101236.44;113106;1200;24999;-60
2021/11/06 00:46:58;;;;;;;20.70;7.30;;;;;;;6.96;81.40;101239.84;112903;1200;25092;-59
2021/11/06 00:49:29;;;;;;;16.20;5.60;;;;;;;6.97;81.38;101241.52;113098;1200;25116;-60
2021/11/06 00:52:00;;;;;;;22.10;8.60;;;;;;;6.96;81.38;101237.86;112817;1193;22451;-59
2021/11/06 00:54:31;;;;;;;20.70;7.20;;;;;;;6.96;81.33;101238.03;113007;1200;24179;-60
2021/11/06 00:57:03;;;;;;;17.90;6.60;;;;;;;6.96;81.38;101236.05;112986;1192;26367;-61
2021/11/06 00:59:34;;;;;;;17.70;6.30;;;;;;;6.95;81.44;101235.27;112814;1193;22462;-61
2021/11/06 01:02:05;;;;;;;17.20;6.10;;;;;;;6.95;81.42;101240.27;113094;1200;22605;-60
2021/11/06 01:04:37;;;;;;;16.60;5.40;;;;;;;6.95;81.52;101237.66;113040;1199;26277;-60
2021/11/06 01:07:08;;;;;;;17.90;5.80;;;;;;;6.96;81.50;101236.84;112857;1200;22480;-60
2021/11/06 01:09:39;;;;;;;16.00;5.50;;;;;;;6.97;81.60;101242.03;112952;1200;22446;-61
2021/11/06 01:12:10;;;;;;;16.50;4.50;;;;;;;6.99;81.48;101247.26;112893;1193;24067;-61
2021/11/06 01:14:41;;;;;;;14.80;5.50;;;;;;;6.99;81.50;101242.95;112822;1192;25114;-61
2021/11/06 01:17:12;;;;;;;15.00;4.70;;;;;;;7.00;81.61;101243.57;112931;1199;25121;-59
2021/11/06 01:19:44;;;;;;;15.20;4.60;;;;;;;7.00;81.57;101245.85;112930;1199;22430;-61
2021/11/06 01:22:15;;;;;;;13.10;4.60;;;;;;;7.02;81.53;101244.23;112861;1200;22505;-60
2021/11/06 01:24:46;;;;;;;14.40;4.50;;;;;;;7.03;81.56;101243.65;112928;1199;22929;-59
2021/11/06 01:27:17;;;;;;;14.40;4.30;;;;;;;7.05;81.53;101242.02;112877;1199;22438;-60
2021/11/06 01:29:49;;;;;;;12.30;3.90;;;;;;;7.06;81.41;101245.26;113040;1193;24136;-60
2021/11/06 01:32:20;;;;;;;15.90;4.20;;;;;;;7.06;81.46;101244.06;112821;1193;24043;-61
2021/11/06 01:34:51;;;;;;;12.70;4.60;;;;;;;7.06;81.37;101245.02;112939;1199;22444;-59
2021/11/06 01:37:22;;;;;;;12.60;4.90;;;;;;;7.07;81.38;101250.71;112872;1200;22462;-59
2021/11/06 01:39:53;;;;;;;13.50;5.00;;;;;;;7.08;81.40;101250.52;112924;1200;22467;-60
2021/11/06 01:42:25;;;;;;;14.90;4.90;;;;;;;7.09;81.46;101252.02;112802;1193;25038;-59
2021/11/06 01:44:56;;;;;;;14.50;4.60;;;;;;;7.10;81.41;101249.77;112814;1200;22814;-60
2021/11/06 01:47:27;;;;;;;16.40;5.30;;;;;;;7.10;81.41;101249.52;112789;1193;22420;-58
2021/11/06 01:49:58;;;;;;;14.30;5.20;;;;;;;7.11;81.37;101245.14;112910;1200;22443;-61
2021/11/06 01:52:29;;;;;;;13.60;4.70;;;;;;;7.12;81.35;101246.53;112885;1192;23979;-60
2021/11/06 01:55:00;;;;;;;14.50;4.00;;;;;;;7.14;81.27;101249.13;112841;1187;25310;-60
2021/11/06 01:57:32;;;;;;;15.30;4.60;;;;;;;7.14;81.31;101252.98;112758;1193;25298;-59
2021/11/06 02:00:05;;;;;;;16.60;4.90;;;;;;;7.14;81.26;101251.16;112888;1199;24029;-59
2021/11/06 02:02:37;;;;;;;19.20;4.90;;;;;;;7.14;81.13;101254.73;112989;1200;22439;-58
2021/11/06 02:05:09;;;;;;;15.70;5.30;;;;;;;7.13;81.15;101257.93;112855;1200;22800;-60
2021/11/06 02:07:40;;;;;;;14.10;4.70;;;;;;;7.12;81.07;101260.11;113194;1199;24027;-60
2021/11/06 02:10:12;;;;;;;14.90;4.60;;;;;;;7.10;81.09;101264.75;112961;1200;22433;-60
2021/11/06 02:12:45;;;;;;;12.40;3.60;;;;;;;7.08;80.99;101262.35;113057;1200;22420;-62
2021/11/06 02:15:18;;;;;;;11.50;4.00;;;;;;;7.05;80.85;101261.55;113178;1200;25034;-59
2021/11/06 02:17:50;;;;;;;14.50;4.50;;;;;;;7.03;80.82;101264.29;113703;1171;22421;-63
2021/11/06 02:20:22;;;;;;;11.30;3.40;;;;;;;6.99;80.85;101265.07;112867;1200;26381;-62
2021/11/06 02:22:55;;;;;;;13.80;4.60;;;;;;;6.96;80.79;101271.88;112990;1192;23183;-63
2021/11/06 02:25:26;;;;;;;15.80;4.30;;;;;;;6.93;80.79;101270.05;112954;1193;25145;-62
2021/11/06 02:27:57;;;;;;;12.30;3.30;;;;;;;6.90;80.79;101269.17;112695;1200;23770;-66
2021/11/06 02:30:28;;;;;;;11.70;3.20;;;;;;;6.87;80.84;101266.16;112842;1200;22502;-62
2021/11/06 02:32:58;;;;;;;11.60;3.70;;;;;;;6.85;80.76;101266.34;113074;1177;24034;-64
2021/11/06 02:35:29;;;;;;;12.40;3.60;;;;;;;6.83;80.78;101264.80;113070;1200;25057;-63
2021/11/06 02:38:00;;;;;;;11.00;3.20;;;;;;;6.82;80.72;101271.34;113077;1193;22443;-64
2021/11/06 02:40:31;;;;;;;13.80;3.80;;;;;;;6.78;80.55;101269.98;113130;1200;22444;-62
2021/11/06 02:43:03;;;;;;;11.90;4.10;;;;;;;6.73;80.48;101267.38;112976;1200;22439;-62
2021/11/06 02:45:34;;;;;;;12.80;3.90;;;;;;;6.68;80.49;101267.25;113195;1200;24045;-62
2021/11/06 02:48:06;;;;;;;9.80;3.30;;;;;;;6.65;80.48;101266.06;113139;1200;24087;-62
2021/11/06 02:50:37;;;;;;;14.10;4.30;;;;;;;6.59;80.46;101267.04;113245;1200;24057;-62
2021/11/06 02:53:08;;;;;;;12.50;4.00;;;;;;;6.54;80.45;101263.57;113024;1200;22406;-62
2021/11/06 02:55:39;;;;;;;11.10;3.00;;;;;;;6.51;80.44;101265.38;113125;1200;22414;-62
2021/11/06 02:58:10;;;;;;;12.30;3.40;;;;;;;6.48;80.43;101268.45;113049;1200;25101;-62
2021/11/06 03:00:41;;;;;;;10.10;3.20;;;;;;;6.45;80.41;101273.10;113052;1200;22522;-62
2021/11/06 03:03:11;;;;;;;10.50;3.40;;;;;;;6.42;80.39;101271.42;112957;1200;22430;-62
2021/11/06 03:05:42;;;;;;;14.60;4.00;;;;;;;6.38;80.39;101267.37;112915;1200;24030;-62
2021/11/06 03:08:13;;;;;;;10.00;3.20;;;;;;;6.34;80.25;101270.69;113005;1200;22428;-63
2021/11/06 03:10:45;;;;;;;10.90;3.30;;;;;;;6.31;80.37;101273.06;113147;1200;25028;-63
2021/11/06 03:13:16;;;;;;;11.50;3.70;;;;;;;6.27;80.30;101272.67;113048;1200;22508;-63
2021/11/06 03:15:47;;;;;;;11.60;3.50;;;;;;;6.24;80.36;101277.70;113029;1192;25011;-62
2021/11/06 03:18:19;;;;;;;12.50;4.50;;;;;;;6.20;80.27;101277.48;112978;1200;24043;-63
2021/11/06 03:20:50;;;;;;;12.90;3.60;;;;;;;6.17;80.30;101282.91;112893;1193;22445;-61
2021/11/06 03:23:23;;;;;;;12.90;3.90;;;;;;;6.14;80.26;101277.90;113065;1193;24057;-61
2021/11/06 03:25:54;;;;;;;10.00;3.40;;;;;;;6.11;80.22;101278.51;113465;1200;22563;-62
2021/11/06 03:28:26;;;;;;;12.50;3.40;;;;;;;6.07;80.28;101275.80;113434;1200;22477;-62
2021/11/06 03:30:57;;;;;;;12.10;3.50;;;;;;;6.05;80.27;101278.45;113011;1193;22445;-62
2021/11/06 03:33:28;;;;;;;12.50;3.90;;;;;;;6.02;80.20;101281.36;113032;1192;23803;-61
2021/11/06 03:35:59;;;;;;;11.00;3.30;;;;;;;5.98;80.23;101285.70;113111;1192;24053;-63
2021/11/06 03:38:30;;;;;;;10.30;3.10;;;;;;;5.95;80.15;101285.99;113064;1200;22449;-62
2021/11/06 03:41:01;;;;;;;9.60;3.40;;;;;;;5.93;80.16;101286.59;112914;1200;22519;-63
2021/11/06 03:43:32;;;;;;;12.90;4.00;;;;;;;5.90;80.13;101288.54;113032;1200;25054;-62
2021/11/06 03:46:03;;;;;;;9.60;3.00;;;;;;;5.87;80.06;101286.20;112984;1200;26371;-62
2021/11/06 03:48:34;;;;;;;13.50;3.60;;;;;;;5.85;80.05;101283.48;112965;1193;25781;-63
2021/11/06 03:51:04;;;;;;;11.00;3.40;;;;;;;5.82;80.00;101287.62;113034;1200;26304;-62
2021/11/06 03:53:36;;;;;;;12.80;3.40;;;;;;;5.80;80.03;101285.98;113045;1194;24605;-62
2021/11/06 03:56:07;;;;;;;12.20;3.20;;;;;;;5.77;79.95;101290.15;113150;1200;25316;-62
2021/11/06 03:58:38;;;;;;;12.70;3.80;;;;;;;5.73;79.92;101291.41;113089;1200;22778;-62
2021/11/06 04:01:09;;;;;;;12.50;3.40;;;;;;;5.69;79.92;101297.56;113035;1200;24475;-62
2021/11/06 04:03:39;;;;;;;11.50;3.30;;;;;;;5.65;79.96;101297.14;112995;1200;22426;-62
2021/11/06 04:06:10;;;;;;;10.20;3.00;;;;;;;5.64;80.00;101302.00;113080;1193;22428;-61
2021/11/06 04:08:41;;;;;;;14.40;3.30;;;;;;;5.63;80.01;101300.03;113036;1177;22483;-62
2021/11/06 04:11:12;;;;;;;10.80;3.10;;;;;;;5.63;80.13;101300.42;112809;1192;24799;-63
2021/11/06 04:13:43;;;;;;;12.40;3.20;;;;;;;5.64;80.21;101296.93;113035;1199;22425;-62
2021/11/06 04:16:14;;;;;;;12.50;3.20;;;;;;;5.65;80.21;101298.10;112961;1185;24115;-62
2021/11/06 04:18:45;;;;;;;11.50;3.20;;;;;;;5.65;80.18;101295.64;113023;1200;22424;-63
2021/11/06 04:21:16;;;;;;;11.80;3.30;;;;;;;5.62;80.04;101295.54;113075;1200;25682;-63
2021/11/06 04:23:47;;;;;;;11.00;3.30;;;;;;;5.61;80.03;101292.07;113022;1200;22493;-63
2021/11/06 04:26:18;;;;;;;10.20;3.10;;;;;;;5.59;79.82;101290.52;113097;1192;22449;-63
2021/11/06 04:28:48;;;;;;;10.90;3.80;;;;;;;5.56;79.81;101288.13;113131;1193;23831;-63
2021/11/06 04:31:19;;;;;;;10.00;2.90;;;;;;;5.53;79.87;101288.96;113181;1199;25069;-63
2021/11/06 04:33:51;;;;;;;11.90;3.90;;;;;;;5.52;79.74;101292.94;113034;1201;24562;-63
2021/11/06 04:36:23;;;;;;;9.00;2.80;;;;;;;5.48;79.72;101293.30;113069;1200;22437;-63
2021/11/06 04:38:54;;;;;;;13.40;2.80;;;;;;;5.46;79.76;101292.31;113336;1200;22516;-63
2021/11/06 04:41:25;;;;;;;11.90;3.50;;;;;;;5.45;79.75;101295.17;113136;1200;22470;-62
2021/11/06 04:43:57;;;;;;;11.00;2.90;;;;;;;5.43;79.66;101295.84;113020;1200;24081;-62
2021/11/06 04:46:28;;;;;;;9.10;2.60;;;;;;;5.42;79.72;101293.55;113056;1200;22941;-62
2021/11/06 04:49:00;;;;;;;8.50;2.60;;;;;;;5.41;79.68;101294.76;113037;1200;24233;-63
2021/11/06 04:51:31;;;;;;;10.60;2.90;;;;;;;5.38;79.65;101298.44;113134;1200;22415;-62
2021/11/06 04:54:02;;;;;;;12.30;3.40;;;;;;;5.37;79.67;101300.04;112995;1200;22424;-62
2021/11/06 04:56:32;;;;;;;13.50;3.40;;;;;;;5.35;79.59;101305.38;113080;1200;25528;-62
2021/11/06 04:59:03;;;;;;;9.80;2.70;;;;;;;5.32;79.57;101302.81;113085;1200;25093;-61
2021/11/06 05:01:34;;;;;;;12.10;3.80;;;;;;;5.29;79.68;101302.77;113144;1200;22426;-63
2021/11/06 05:04:05;;;;;;;11.60;3.20;;;;;;;5.29;79.60;101305.39;113088;1200;25345;-62
2021/11/06 05:06:36;;;;;;;10.70;2.90;;;;;;;5.27;79.46;101306.52;113105;1200;22484;-62
2021/11/06 05:09:07;;;;;;;11.10;3.30;;;;;;;5.25;79.49;101305.91;113143;1192;25618;-62
2021/11/06 05:11:39;;;;;;;11.60;2.70;;;;;;;5.23;79.37;101311.48;113086;1200;25208;-62
2021/11/06 05:14:09;;;;;;;10.30;2.90;;;;;;;5.21;79.35;101313.72;113022;1194;22432;-62
2021/11/06 05:16:40;;;;;;;17.00;4.30;;;;;;;5.19;79.41;101318.90;112956;1200;22525;-62
2021/11/06 05:19:11;;;;;;;13.20;3.20;;;;;;;5.15;79.18;101324.09;112869;1193;25119;-62
2021/11/06 05:21:43;;;;;;;10.50;3.70;;;;;;;5.10;79.37;101325.80;112787;1200;25145;-63
2021/11/06 05:24:14;;;;;;;12.50;3.60;;;;;;;5.07;79.40;101332.48;112991;1201;25073;-62
2021/11/06 05:26:45;;;;;;;13.60;4.30;;;;;;;5.06;79.44;101333.70;112917;1201;25136;-62
2021/11/06 05:29:18;;;;;;;13.90;3.70;;;;;;;5.05;79.43;101336.72;112947;1201;26500;-62
2021/11/06 05:31:49;;;;;;;10.90;3.20;;;;;;;5.06;79.49;101337.17;113124;1201;22496;-62
2021/11/06 05:34:20;;;;;;;13.70;4.00;;;;;;;5.04;79.47;101340.20;113001;1201;25159;-62
2021/11/06 05:36:51;;;;;;;17.60;4.60;;;;;;;5.05;79.53;101340.36;112938;1201;22438;-62
2021/11/06 05:39:23;;;;;;;18.80;5.00;;;;;;;5.05;79.51;101343.11;112969;1198;25314;-62
2021/11/06 05:41:54;;;;;;;19.00;4.70;;;;;;;5.04;79.52;101343.77;113191;1201;25215;-62
2021/11/06 05:44:26;;;;;;;24.90;6.20;;;;;;;5.03;79.50;101340.67;113023;1201;25233;-63
2021/11/06 05:46:56;;;;;;;14.70;4.20;;;;;;;5.02;79.53;101343.32;112998;1201;25139;-63
2021/11/06 05:49:27;;;;;;;14.50;3.60;;;;;;;5.01;79.60;101344.11;113056;1201;22429;-62
2021/11/06 05:51:58;;;;;;;16.70;4.60;;;;;;;5.01;79.51;101346.73;113159;1193;22582;-61
2021/11/06 05:54:29;;;;;;;14.00;4.10;;;;;;;5.01;79.63;101350.61;112996;1201;22432;-61
2021/11/06 05:57:00;;;;;;;14.20;3.70;;;;;;;5.00;79.62;101347.38;112896;1201;22438;-63
2021/11/06 05:59:31;;;;;;;14.90;4.40;;;;;;;5.01;79.67;101349.80;112987;1201;24067;-62
2021/11/06 06:02:02;;;;;;;14.00;4.30;;;;;;;5.01;79.66;101348.31;112853;1201;25065;-62
2021/11/06 06:04:32;;;;;;;14.60;3.90;;;;;;;4.99;79.57;101355.98;112917;1201;22435;-62
2021/11/06 06:07:04;;;;;;;18.10;5.00;;;;;;;4.99;79.56;101359.48;112944;1201;25347;-62
2021/11/06 06:09:35;;;;;;;19.10;4.10;;;;;;;4.98;79.48;101367.64;113016;1201;24122;-62
2021/11/06 06:12:09;;;;;;;14.60;4.90;;;;;;;4.95;79.40;101367.20;112640;1201;24093;-63
2021/11/06 06:14:40;;;;;;;13.30;3.90;;;;;;;4.93;79.36;101367.84;112709;1201;24827;-62
2021/11/06 06:17:11;;;;;;;16.70;4.80;;;;;;;4.90;79.31;101368.58;112987;1200;24094;-63
2021/11/06 06:19:43;;;;;;;17.80;3.70;;;;;;;4.88;79.27;101372.25;113156;1199;22424;-63
2021/11/06 06:22:14;;;;;;;14.40;4.30;;;;;;;4.87;79.27;101378.20;113172;1193;22429;-63
2021/11/06 06:24:44;;;;;;;15.30;4.00;;;;;;;4.86;79.37;101379.48;113175;1200;24190;-63
2021/11/06 06:27:16;;;;;;;16.80;5.20;;;;;;;4.85;79.34;101377.19;113098;1200;22449;-63
2021/11/06 06:29:47;;;;;;;16.30;4.60;;;;;;;4.85;79.29;101375.06;113153;1193;22431;-63
2021/11/06 06:32:18;;;;;;;15.50;3.80;;;;;;;4.82;79.19;101376.13;112996;1200;24071;-63
2021/11/06 06:34:49;;;;;;;14.90;5.00;;;;;;;4.81;79.27;101385.23;113024;1200;22436;-63
2021/11/06 06:37:20;;;;;;;20.10;5.20;;;;;;;4.80;79.30;101383.02;112975;1200;26405;-63
2021/11/06 06:39:51;;;;;;;18.90;4.90;;;;;;;4.78;79.23;101387.62;113006;1200;22455;-63
2021/11/06 06:42:23;;;;;;;16.00;4.70;;;;;;;4.78;79.32;101385.65;113093;1200;25261;-63
2021/11/06 06:44:54;;;;;;;14.30;4.50;;;;;;;4.76;79.36;101391.68;113318;1200;22744;-62
2021/11/06 06:47:25;;;;;;;15.60;5.10;;;;;;;4.74;79.37;101392.80;113202;1200;24172;-73
2021/11/06 06:49:56;;;;;;;17.70;4.90;;;;;;;4.74;79.50;101386.48;113139;1200;24954;-63
2021/11/06 06:52:27;;;;;;;17.50;5.50;;;;;;;4.75;79.49;101389.16;113224;1193;22441;-62
2021/11/06 06:54:58;;;;;;;16.70;4.70;;;;;;;4.75;79.52;101389.64;113145;1200;24933;-62
2021/11/06 06:57:29;;;;;;;16.40;4.30;;;;;;;4.77;79.53;101394.05;113269;1200;23572;-62
2021/11/06 07:00:00;;;;;;;20.00;5.50;;;;;;;4.77;79.60;101399.73;113186;1200;22429;-62
2021/11/06 07:02:31;;;;;;;18.50;6.00;;;;;;;4.78;79.57;101399.95;113248;1193;22768;-62
2021/11/06 07:05:02;;;;;;;19.40;5.50;;;;;;;4.81;79.74;101400.23;113259;1200;25141;-62
2021/11/06 07:07:33;;;;;;;16.10;5.30;;;;;;;4.84;79.72;101404.31;112867;1200;25303;-62
2021/11/06 07:10:07;;;;;;;20.60;5.30;;;;;;;4.87;79.64;101401.61;112988;1199;22480;-63
2021/11/06 07:12:38;;;;;;;17.40;5.80;;;;;;;4.89;79.66;101406.64;113110;1200;22420;-63
2021/11/06 07:15:10;;;;;;;16.80;4.10;;;;;;;4.91;79.62;101405.58;113399;1199;24082;-63
2021/11/06 07:17:41;;;;;;;14.40;4.80;;;;;;;4.93;79.70;101403.27;113254;1200;22759;-63
2021/11/06 07:20:15;;;;;;;18.70;5.80;;;;;;;4.98;79.76;101399.66;113118;1200;25021;-63
2021/11/06 07:22:47;;;;;;;17.50;5.60;;;;;;;5.02;79.84;101402.69;113262;1193;22417;-63
2021/11/06 07:25:20;;;;;;;15.20;4.00;;;;;;;5.08;79.85;101404.75;113144;1193;22464;-63
2021/11/06 07:27:52;;;;;;;17.30;5.20;;;;;;;5.14;79.96;101405.79;113192;1200;22576;-63
2021/11/06 07:30:23;;;;;;;15.40;4.70;;;;;;;5.21;79.98;101406.88;113157;1200;22445;-63
2021/11/06 07:32:54;;;;;;;15.40;4.10;;;;;;;5.29;79.97;101412.48;113174;1199;23831;-63
2021/11/06 07:35:25;;;;;;;16.60;4.70;;;;;;;5.38;80.09;101412.61;113163;1200;22464;-62
2021/11/06 07:37:57;;;;;;;15.40;4.70;;;;;;;5.47;80.03;101412.87;113408;1200;23991;-62
2021/11/06 07:40:28;;;;;;;13.80;4.90;;;;;;;5.58;79.98;101414.80;113152;1200;24085;-62
2021/11/06 07:43:01;;;;;;;16.90;4.60;;;;;;;5.68;80.02;101414.24;113396;1193;22442;-63
2021/11/06 07:45:33;;;;;;;14.30;4.60;;;;;;;5.79;80.06;101411.27;113177;1200;25212;-62
2021/11/06 07:48:06;;;;;;;13.40;4.00;;;;;;;5.90;80.10;101414.91;113230;1200;22443;-63
2021/11/06 07:50:37;;;;;;;12.90;2.90;;;;;;;6.04;79.93;101411.91;113291;1192;22474;-62
2021/11/06 07:53:08;;;;;;;11.50;3.00;;;;;;;6.18;79.70;101411.31;113377;1194;23844;-63
2021/11/06 07:55:39;;;;;;;13.70;3.70;;;;;;;6.31;79.59;101412.66;113255;1200;25228;-62
2021/11/06 07:58:13;;;;;;;10.70;2.90;;;;;;;6.44;79.60;101413.23;112834;1195;22442;-63
2021/11/06 08:00:44;;;;;;;12.20;3.60;;;;;;;6.55;79.42;101412.73;112795;1193;22391;-63
2021/11/06 08:03:15;;;;;;;13.90;3.20;;;;;;;6.67;79.29;101413.01;112648;1193;25526;-64
2021/11/06 08:05:46;;;;;;;10.50;3.40;;;;;;;6.76;79.21;101413.21;112805;1200;22431;-63
2021/11/06 08:08:17;;;;;;;11.90;3.10;;;;;;;6.85;79.29;101416.08;112745;1192;22445;-63
2021/11/06 08:10:48;;;;;;;10.80;3.00;;;;;;;6.95;79.32;101420.16;112707;1200;22533;-63
2021/11/06 08:13:19;;;;;;;10.20;3.00;;;;;;;7.03;79.27;101424.38;112721;1193;25034;-62
2021/11/06 08:15:50;;;;;;;14.60;3.10;;;;;;;7.12;79.02;101427.59;112736;1193;24059;-64
2021/11/06 08:18:21;;;;;;;11.70;3.40;;;;;;;7.19;78.99;101428.48;112766;1200;22435;-62
2021/11/06 08:20:54;;;;;;;13.10;2.50;;;;;;;7.29;79.05;101432.41;112636;1200;22439;-63
2021/11/06 08:23:25;;;;;;;10.80;2.50;;;;;;;7.37;78.73;101430.82;112652;1200;22710;-61
2021/11/06 08:25:56;;;;;;;10.80;2.70;;;;;;;7.46;78.72;101434.60;112897;1200;22425;-62
2021/11/06 08:28:28;;;;;;;13.10;2.80;;;;;;;7.55;78.55;101431.70;112815;1200;22421;-62
2021/11/06 08:30:59;;;;;;;12.40;3.40;;;;;;;7.63;78.41;101433.92;112835;1200;26214;-62
2021/11/06 08:33:31;;;;;;;11.20;3.20;;;;;;;7.69;78.45;101435.36;112874;1193;24141;-62
2021/11/06 08:36:03;;;;;;;11.00;3.00;;;;;;;7.76;78.24;101439.36;112840;1200;22442;-62
2021/11/06 08:38:34;;;;;;;10.50;3.50;;;;;;;7.81;77.84;101441.78;113032;1193;24298;-62
2021/11/06 08:41:09;;;;;;;10.50;2.40;;;;;;;7.86;78.06;101443.09;112905;1200;22608;-62
2021/11/06 08:43:45;;;;;;;8.50;2.20;;;;;;;7.91;78.15;101440.04;113160;1200;22428;-62
2021/11/06 08:46:16;;;;;;;9.00;1.80;;;;;;;7.97;77.75;101439.18;112957;1200;22444;-62
2021/11/06 08:48:48;;;;;;;10.70;2.20;;;;;;;8.03;77.46;101439.84;112688;1200;25178;-62
2021/11/06 08:51:19;;;;;;;9.60;2.00;;;;;;;8.08;77.28;101437.08;112674;1200;22515;-63
2021/11/06 08:53:50;;;;;;;15.70;3.00;;;;;;;8.14;77.21;101435.92;112808;1200;23040;-63
2021/11/06 08:56:24;;;;;;;10.60;2.00;;;;;;;8.20;77.18;101439.84;112715;1200;22445;-64
2021/11/06 08:58:56;;;;;;;11.30;2.20;;;;;;;8.26;76.83;101443.99;112679;1200;26642;-62
2021/11/06 09:01:27;;;;;;;8.80;1.90;;;;;;;8.33;76.58;101445.52;112607;1200;22439;-63
2021/11/06 09:03:59;;;;;;;11.60;1.90;;;;;;;8.39;76.30;101445.28;112835;1200;22520;-62
2021/11/06 09:06:33;;;;;;;9.70;1.70;;;;;;;8.45;76.44;101447.67;112771;1200;26312;-75
2021/11/06 09:09:09;;;;;;;9.80;2.20;;;;;;;8.50;76.18;101439.98;113289;1200;24539;-63
2021/11/06 09:11:41;;;;;;;10.20;2.10;;;;;;;8.58;76.15;101443.68;112823;1200;23582;-62
2021/11/06 09:14:12;;;;;;;10.80;1.70;;;;;;;8.65;76.02;101444.38;112722;1200;22416;-62
2021/11/06 09:16:44;;;;;;;12.60;2.40;;;;;;;8.71;76.16;101441.92;112674;1187;23145;-62
2021/11/06 09:19:16;;;;;;;8.50;2.10;;;;;;;8.77;75.96;101445.23;112731;1200;22438;-62
2021/11/06 09:21:47;;;;;;;9.30;2.10;;;;;;;8.85;75.71;101445.92;112753;1200;25132;-62
2021/11/06 09:24:18;;;;;;;9.00;1.70;;;;;;;8.92;75.61;101444.70;113037;1200;22442;-61
2021/11/06 09:26:49;;;;;;;8.00;1.70;;;;;;;8.98;75.23;101442.94;112660;1200;24949;-63
2021/11/06 09:29:21;;;;;;;8.30;2.00;;;;;;;9.05;75.24;101444.77;112641;1195;25717;-61
2021/11/06 09:31:51;;;;;;;8.60;1.80;;;;;;;9.10;75.03;101448.20;112951;1200;25346;-62
2021/11/06 09:34:22;;;;;;;8.90;1.80;;;;;;;9.16;74.90;101457.65;112977;1200;22435;-63
2021/11/06 09:36:53;;;;;;;8.90;1.70;;;;;;;9.21;74.74;101453.86;112622;1200;23390;-61
2021/11/06 09:39:24;;;;;;;7.60;1.70;;;;;;;9.26;74.52;101452.45;112589;1193;22448;-62
2021/11/06 09:41:56;;;;;;;9.60;1.40;;;;;;;9.31;74.52;101453.73;112569;1200;24186;-62
2021/11/06 09:44:30;;;;;;;11.40;2.10;;;;;;;9.35;74.51;101454.65;112644;1200;24134;-62
2021/11/06 09:47:02;;;;;;;10.60;1.70;;;;;;;9.39;74.57;101450.64;113412;1200;24434;-62
2021/11/06 09:49:34;;;;;;;9.10;1.60;;;;;;;9.45;74.47;101455.48;115264;1193;25316;-61
2021/11/06 09:52:06;;;;;;;9.00;2.00;;;;;;;9.51;74.45;101453.55;112833;1200;23106;-63
2021/11/06 09:54:37;;;;;;;8.10;2.00;;;;;;;9.59;74.24;101461.92;112845;1200;26224;-63
2021/11/06 09:57:08;;;;;;;10.10;1.80;;;;;;;9.64;73.96;101460.33;112813;1200;24076;-60
2021/11/06 09:59:39;;;;;;;10.90;1.70;;;;;;;9.68;74.21;101459.73;112743;1199;22584;-59
2021/11/06 10:02:11;;;;;;;7.00;1.40;;;;;;;9.71;73.52;101461.33;112809;1194;24066;-59
2021/11/06 10:04:42;;;;;;;10.70;1.80;;;;;;;9.73;73.80;101457.20;113071;1200;25024;-60
2021/11/06 10:07:24;;;;;;;7.60;1.40;;;;;;;9.76;73.53;101458.14;112828;1200;22845;-62
2021/11/06 10:10:06;;;;;;;8.00;1.60;;;;;;;9.82;73.44;101458.45;112695;1200;22460;-62
2021/11/06 10:12:49;;;;;;;7.10;1.30;;;;;;;9.88;72.92;101455.48;113024;1200;24161;-61
2021/11/06 10:15:24;;;;;;;10.80;1.30;;;;;;;9.91;72.38;101452.66;113058;1193;24060;-61
2021/11/06 10:17:56;;;;;;;5.50;1.10;;;;;;;9.89;72.43;101449.45;113297;1193;22448;-62
2021/11/06 10:20:31;;;;;;;8.10;1.40;;;;;;;9.87;72.39;101449.98;113354;1200;25212;-60
2021/11/06 10:23:06;;;;;;;3.10;0.70;;;;;;;9.86;72.23;101446.78;113233;1200;26420;-60
2021/11/06 10:25:38;;;;;;;6.50;0.70;;;;;;;9.82;71.27;101441.30;113317;1199;22547;-59
2021/11/06 10:28:12;;;;;;;6.90;0.70;;;;;;;9.76;70.82;101445.30;112558;1193;22436;-60
2021/11/06 10:30:46;;;;;;;2.10;0.30;;;;;;;9.74;70.68;101438.85;113153;1200;22432;-60
2021/11/06 10:33:23;;;;;;;2.60;0.50;;;;;;;9.74;70.08;101437.64;112788;1200;23291;-62
2021/11/06 10:35:57;;;;;;;3.70;0.50;;;;;;;9.72;70.04;101433.23;112830;1195;23749;-62
2021/11/06 10:38:29;;;;;;;4.00;0.70;;;;;;;9.70;70.37;101431.57;112696;1192;22442;-60
2021/11/06 10:41:06;;;;;;;6.80;1.30;;;;;;;9.66;70.19;101428.80;113258;1192;22492;-61
2021/11/06 10:43:38;;;;;;;2.80;0.40;;;;;;;9.65;70.01;101430.52;113328;1200;22518;-61
2021/11/06 10:46:15;;;;;;;5.40;0.60;;;;;;;9.62;70.03;101421.58;113074;1200;23499;-60
2021/11/06 10:48:47;;;;;;;4.90;0.60;;;;;;;9.61;70.13;101417.96;113421;1199;22448;-60
2021/11/06 10:51:19;;;;;;;4.40;0.50;;;;;;;9.63;69.62;101417.26;113020;1200;22753;-61
2021/11/06 10:53:52;;;;;;;3.40;0.50;;;;;;;9.68;70.25;101411.77;113390;1200;24213;-60
2021/11/06 10:56:35;;;;;;;2.40;0.70;;;;;;;9.76;69.95;101408.02;113257;1194;25030;-61
2021/11/06 10:59:16;;;;;;;2.30;0.40;;;;;;;9.88;69.91;101410.29;113162;1199;22445;-61
2021/11/06 11:01:52;;;;;;;2.70;0.40;;;;;;;10.01;69.30;101413.19;112764;1200;24057;-61
2021/11/06 11:04:26;;;;;;;2.90;0.50;;;;;;;10.16;68.66;101411.10;112549;1194;25044;-60
2021/11/06 11:07:00;;;;;;;3.20;0.40;;;;;;;10.26;68.69;101402.27;112723;1200;22525;-61
2021/11/06 11:09:37;;;;;;;2.70;0.30;;;;;;;10.36;68.74;101403.38;112866;1200;25090;-60
2021/11/06 11:12:17;;;;;;;5.30;0.50;;;;;;;10.46;68.57;101402.73;112785;1200;22431;-61
2021/11/06 11:14:55;;;;;;;2.20;0.30;;;;;;;10.55;68.19;101401.87;112602;1200;25018;-61
2021/11/06 11:17:44;;;;;;;6.00;0.40;;;;;;;10.62;67.68;101406.20;112936;1200;23022;-62
2021/11/06 11:20:27;;;;;;;3.20;0.30;;;;;;;10.68;67.95;101399.90;112700;1200;25052;-62
2021/11/06 11:23:14;;;;;;;2.60;0.30;;;;;;;10.77;67.02;101390.91;112761;1200;22462;-63
2021/11/06 11:25:46;;;;;;;2.80;0.20;;;;;;;10.83;65.50;101391.80;112935;1200;25134;-64
2021/11/06 11:28:17;;;;;;;5.70;0.80;;;;;;;10.85;65.79;101389.73;112600;1200;25113;-60
2021/11/06 11:30:48;;;;;;;9.00;0.40;;;;;;;10.85;65.86;101384.38;112542;1197;24895;-66
2021/11/06 11:33:19;;;;;;;3.20;0.40;;;;;;;10.90;65.61;101381.73;112573;1200;22451;-61
2021/11/06 11:35:51;;;;;;;3.90;0.30;;;;;;;10.93;64.93;101377.08;112591;1200;22503;-62
2021/11/06 11:38:23;;;;;;;2.40;0.30;;;;;;;10.96;65.04;101379.11;112662;1194;22444;-61
2021/11/06 11:41:11;;;;;;;2.50;0.40;;;;;;;11.00;64.67;101373.31;112740;1200;24151;-61